createdAt,value
2022-09-10T00:01:30.830Z,100530.63
2022-09-10T00:03:59.006Z,100533.44
2022-09-10T00:06:28.929Z,100530.78
2022-09-10T00:08:58.406Z,100530.78
2022-09-10T00:11:31.823Z,100528.38
2022-09-10T00:14:00.161Z,100540.81
2022-09-10T00:16:28.821Z,100535.47
2022-09-10T00:18:57.197Z,100535.47
2022-09-10T00:21:25.299Z,100532.97
2022-09-10T00:23:54.762Z,100536.72
2022-09-10T00:26:24.846Z,100543.72
2022-09-10T00:28:54.414Z,100537.50
2022-09-10T00:31:24.075Z,100533.88
2022-09-10T00:33:52.509Z,100530.41
2022-09-10T00:36:22.658Z,100528.63
2022-09-10T00:38:51.514Z,100526.97
2022-09-10T00:41:25.077Z,100523.28
2022-09-10T00:43:55.906Z,100533.16
2022-09-10T00:46:34.406Z,100517.28
2022-09-10T00:49:07.009Z,100527.13
2022-09-10T00:51:36.464Z,100534.91
2022-09-10T00:54:06.506Z,100529.72
2022-09-10T00:56:35.908Z,100530.56
2022-09-10T00:59:05.560Z,100534.03
2022-09-10T01:01:34.645Z,100526.97
2022-09-10T01:04:04.748Z,100524.44
2022-09-10T01:06:33.010Z,100527.41
2022-09-10T01:09:03.008Z,100523.06
2022-09-10T01:11:53.321Z,100532.75
2022-09-10T01:14:53.235Z,100534.91
2022-09-10T01:17:31.523Z,100542.16
2022-09-10T01:20:38.192Z,100531.63
2022-09-10T01:23:25.625Z,100537.13
2022-09-10T01:26:05.441Z,100545.03
2022-09-10T01:28:40.346Z,100544.84
2022-09-10T01:31:12.824Z,100554.72
2022-09-10T01:33:47.507Z,100556.44
2022-09-10T01:36:20.769Z,100551.19
2022-09-10T01:38:50.044Z,100558.34
2022-09-10T01:41:18.596Z,100548.28
2022-09-10T01:43:47.878Z,100551.69
2022-09-10T01:46:35.380Z,100557.03
2022-09-10T01:49:18.752Z,100562.47
2022-09-10T01:52:13.186Z,100560.63
2022-09-10T01:54:56.333Z,100558.03
2022-09-10T01:57:33.820Z,100561.66
2022-09-10T02:00:09.073Z,100559.78
2022-09-10T02:02:48.143Z,100561.44
2022-09-10T02:05:20.579Z,100556.03
2022-09-10T02:07:59.595Z,100556.88
2022-09-10T02:10:27.825Z,100559.56
2022-09-10T02:12:56.067Z,100563.22
2022-09-10T02:15:44.407Z,100557.03
2022-09-10T02:18:20.772Z,100564.03
2022-09-10T02:20:51.843Z,100565.75
2022-09-10T02:23:23.411Z,100565.25
2022-09-10T02:25:54.002Z,100563.38
2022-09-10T02:28:28.384Z,100568.16
2022-09-10T02:30:57.564Z,100573.28
2022-09-10T02:33:25.357Z,100570.59
2022-09-10T02:35:54.452Z,100568.75
2022-09-10T02:38:22.418Z,100584.78
2022-09-10T02:40:50.363Z,100573.94
2022-09-10T02:43:18.614Z,100572.06
2022-09-10T02:45:46.438Z,100576.44
2022-09-10T02:48:15.625Z,100571.06
2022-09-10T02:50:46.493Z,100572.78
2022-09-10T02:53:14.474Z,100569.41
2022-09-10T02:55:46.151Z,100566.72
2022-09-10T02:58:15.786Z,100573.78
2022-09-10T03:00:43.961Z,100570.16
2022-09-10T03:03:12.335Z,100571.91
2022-09-10T03:05:41.680Z,100573.56
2022-09-10T03:08:10.302Z,100577.09
2022-09-10T03:10:41.012Z,100579.00
2022-09-10T03:13:08.864Z,100577.09
2022-09-10T03:15:36.637Z,100587.81
2022-09-10T03:18:04.540Z,100591.28
2022-09-10T03:20:32.349Z,100582.47
2022-09-10T03:23:01.557Z,100579.63
2022-09-10T03:25:31.161Z,100576.91
2022-09-10T03:27:59.756Z,100581.22
2022-09-10T03:30:28.433Z,100580.59
2022-09-10T03:32:57.526Z,100576.25
2022-09-10T03:35:25.565Z,100578.13
2022-09-10T03:37:54.273Z,100575.38
2022-09-10T03:40:24.377Z,100580.59
2022-09-10T03:42:52.206Z,100584.13
2022-09-10T03:45:20.250Z,100579.69
2022-09-10T03:47:48.046Z,100585.22
2022-09-10T03:50:16.264Z,100584.34
2022-09-10T03:52:44.002Z,100587.97
2022-09-10T03:55:12.287Z,100586.22
2022-09-10T03:57:42.652Z,100585.50
2022-09-10T04:00:12.846Z,100592.94
2022-09-10T04:02:44.068Z,100584.94
2022-09-10T04:05:13.467Z,100594.72
2022-09-10T04:07:41.541Z,100588.53
2022-09-10T04:10:09.796Z,100591.97
2022-09-10T04:12:37.787Z,100586.63
2022-09-10T04:15:08.605Z,100584.94
2022-09-10T04:17:37.809Z,100593.13
2022-09-10T04:20:06.584Z,100589.72
2022-09-10T04:22:34.949Z,100592.56
2022-09-10T04:25:02.923Z,100589.81
2022-09-10T04:27:30.933Z,100585.47
2022-09-10T04:29:58.866Z,100581.91
2022-09-10T04:32:28.208Z,100585.47
2022-09-10T04:34:56.151Z,100580.13
2022-09-10T04:37:24.583Z,100587.22
2022-09-10T04:39:55.361Z,100585.47
2022-09-10T04:42:23.254Z,100582.88
2022-09-10T04:44:52.908Z,100583.72
2022-09-10T04:47:21.257Z,100578.38
2022-09-10T04:49:50.540Z,100581.97
2022-09-10T04:52:20.161Z,100596.31
2022-09-10T04:54:47.991Z,100590.00
2022-09-10T04:57:16.027Z,100595.34
2022-09-10T04:59:44.011Z,100588.22
2022-09-10T05:02:12.840Z,100589.06
2022-09-10T05:04:40.821Z,100601.50
2022-09-10T05:07:09.986Z,100600.84
2022-09-10T05:09:37.799Z,100608.84
2022-09-10T05:12:06.141Z,100607.00
2022-09-10T05:14:34.514Z,100608.84
2022-09-10T05:17:03.655Z,100607.84
2022-09-10T05:19:33.350Z,100603.28
2022-09-10T05:22:05.645Z,100599.59
2022-09-10T05:24:35.217Z,100607.50
2022-09-10T05:27:05.353Z,100601.13
2022-09-10T05:29:33.160Z,100609.13
2022-09-10T05:32:01.266Z,100608.16
2022-09-10T05:34:29.115Z,100606.47
2022-09-10T05:36:58.567Z,100614.47
2022-09-10T05:39:26.334Z,100610.84
2022-09-10T05:41:55.906Z,100613.38
2022-09-10T05:44:24.579Z,100609.63
2022-09-10T05:46:53.198Z,100607.59
2022-09-10T05:49:21.926Z,100615.53
2022-09-10T05:51:49.691Z,100609.03
2022-09-10T05:54:17.526Z,100610.50
2022-09-10T05:56:46.526Z,100611.50
2022-09-10T05:59:15.871Z,100600.22
2022-09-10T06:01:51.314Z,100601.31
2022-09-10T06:04:20.860Z,100601.19
2022-09-10T06:06:49.713Z,100602.22
2022-09-10T06:09:19.150Z,100605.09
2022-09-10T06:12:07.055Z,100601.31
2022-09-10T06:14:36.940Z,100601.47
2022-09-10T06:17:04.888Z,100608.25
2022-09-10T06:19:33.764Z,100601.81
2022-09-10T06:22:01.538Z,100604.19
2022-09-10T06:24:32.170Z,100610.03
2022-09-10T06:27:00.648Z,100603.59
2022-09-10T06:29:31.101Z,100609.63
2022-09-10T06:32:01.837Z,100602.66
2022-09-10T06:34:29.663Z,100612.38
2022-09-10T06:36:58.272Z,100609.16
2022-09-10T06:39:28.792Z,100610.50
2022-09-10T06:42:00.111Z,100616.00
2022-09-10T06:44:50.373Z,100615.34
2022-09-10T06:50:26.482Z,100614.91
2022-09-10T06:52:58.105Z,100614.59
2022-09-10T06:55:26.568Z,100621.44
2022-09-10T06:57:54.343Z,100614.28
2022-09-10T07:00:23.141Z,100624.28
2022-09-10T07:02:55.431Z,100621.91
2022-09-10T07:05:24.969Z,100630.88
2022-09-10T07:07:52.922Z,100631.13
2022-09-10T07:10:23.036Z,100625.78
2022-09-10T07:12:52.293Z,100637.41
2022-09-10T07:15:22.053Z,100634.72
2022-09-10T07:17:51.479Z,100633.16
2022-09-10T07:20:25.012Z,100639.44
2022-09-10T07:22:55.131Z,100642.34
2022-09-10T07:25:26.110Z,100644.00
2022-09-10T07:28:01.257Z,100646.91
2022-09-10T07:30:32.138Z,100651.06
2022-09-10T07:33:02.746Z,100648.59
2022-09-10T07:35:35.390Z,100648.94
2022-09-10T07:38:03.527Z,100651.97
2022-09-10T07:40:32.683Z,100657.25
2022-09-10T07:43:00.836Z,100649.00
2022-09-10T07:45:34.630Z,100656.09
2022-09-10T07:48:05.341Z,100657.34
2022-09-10T07:50:39.656Z,100662.38
2022-09-10T07:53:07.672Z,100656.88
2022-09-10T07:55:36.636Z,100662.25
2022-09-10T07:58:07.932Z,100661.75
2022-09-10T08:00:37.174Z,100661.44
2022-09-10T08:03:08.270Z,100669.22
2022-09-10T08:05:39.487Z,100668.84
2022-09-10T08:08:07.998Z,100664.13
2022-09-10T08:10:36.289Z,100678.13
2022-09-10T08:13:04.074Z,100683.34
2022-09-10T08:15:31.961Z,100681.44
2022-09-10T08:18:02.466Z,100681.13
2022-09-10T08:20:31.227Z,100688.75
2022-09-10T08:23:01.004Z,100690.72
2022-09-10T08:25:28.946Z,100688.34
2022-09-10T08:27:58.758Z,100697.69
2022-09-10T08:30:27.029Z,100701.44
2022-09-10T08:32:56.134Z,100696.16
2022-09-10T08:35:24.067Z,100695.97
2022-09-10T08:37:51.893Z,100695.13
2022-09-10T08:40:23.626Z,100688.19
2022-09-10T08:42:53.226Z,100693.91
2022-09-10T08:45:29.056Z,100698.25
2022-09-10T08:48:04.144Z,100699.28
2022-09-10T08:50:41.264Z,100705.25
2022-09-10T08:53:26.243Z,100695.28
2022-09-10T08:56:03.199Z,100699.19
2022-09-10T08:58:41.204Z,100703.25
2022-09-10T09:01:16.318Z,100693.47
2022-09-10T09:03:47.163Z,100684.34
2022-09-10T09:06:26.104Z,100685.13
2022-09-10T09:08:54.959Z,100687.44
2022-09-10T09:11:41.063Z,100689.94
2022-09-10T09:14:22.248Z,100691.47
2022-09-10T09:17:09.819Z,100693.75
2022-09-10T09:19:45.685Z,100696.00
2022-09-10T09:22:20.734Z,100695.81
2022-09-10T09:24:57.400Z,100684.47
2022-09-10T09:27:30.274Z,100692.19
2022-09-10T09:30:03.532Z,100690.84
2022-09-10T09:32:38.174Z,100695.31
2022-09-10T09:35:17.330Z,100693.97
2022-09-10T09:37:48.148Z,100690.59
2022-09-10T09:40:28.214Z,100690.50
2022-09-10T09:43:03.821Z,100696.66
2022-09-10T09:45:37.798Z,100688.97
2022-09-10T09:48:07.507Z,100690.50
2022-09-10T09:50:41.778Z,100685.31
2022-09-10T09:53:15.168Z,100685.41
2022-09-10T09:55:47.018Z,100682.81
2022-09-10T09:58:50.705Z,100676.63
2022-09-10T10:01:22.051Z,100685.09
2022-09-10T10:04:04.031Z,100672.19
2022-09-10T10:06:34.581Z,100679.69
2022-09-10T10:09:06.087Z,100677.78
2022-09-10T10:11:48.283Z,100674.53
2022-09-10T10:14:38.258Z,100673.53
2022-09-10T10:17:43.143Z,100683.50
2022-09-10T10:20:13.500Z,100671.56
2022-09-10T10:22:42.580Z,100669.31
2022-09-10T10:25:40.362Z,100666.25
2022-09-10T10:28:16.770Z,100667.13
2022-09-10T10:30:52.863Z,100666.25
2022-09-10T10:33:27.695Z,100670.38
2022-09-10T10:36:04.631Z,100661.22
2022-09-10T10:38:35.206Z,100660.50
2022-09-10T10:41:34.300Z,100658.56
2022-09-10T10:44:24.067Z,100658.25
2022-09-10T10:47:11.607Z,100664.34
2022-09-10T10:49:50.079Z,100661.66
2022-09-10T10:52:27.585Z,100664.88
2022-09-10T10:55:12.549Z,100664.53
2022-09-10T10:58:05.574Z,100662.16
2022-09-10T11:00:42.390Z,100656.81
2022-09-10T11:03:21.289Z,100650.78
2022-09-10T11:05:52.950Z,100653.94
2022-09-10T11:08:31.311Z,100660.19
2022-09-10T11:11:05.901Z,100660.88
2022-09-10T11:13:40.696Z,100662.44
2022-09-10T11:16:16.654Z,100648.72
2022-09-10T11:18:51.784Z,100652.28
2022-09-10T11:21:27.030Z,100638.09
2022-09-10T11:24:01.741Z,100637.88
2022-09-10T11:26:36.451Z,100638.56
2022-09-10T11:29:18.955Z,100631.13
2022-09-10T11:31:51.084Z,100629.84
2022-09-10T11:34:27.211Z,100628.88
2022-09-10T11:37:02.253Z,100635.50
2022-09-10T11:39:34.580Z,100632.25
2022-09-10T11:42:13.492Z,100636.19
2022-09-10T11:44:52.139Z,100627.94
2022-09-10T11:47:27.881Z,100622.13
2022-09-10T11:50:02.711Z,100629.41
2022-09-10T11:52:33.618Z,100631.97
2022-09-10T11:55:03.540Z,100623.28
2022-09-10T11:57:39.240Z,100620.91
2022-09-10T12:00:15.971Z,100616.25
2022-09-10T12:03:16.403Z,100622.81
2022-09-10T12:06:00.119Z,100628.53
2022-09-10T12:08:59.783Z,100633.13
2022-09-10T12:11:36.147Z,100625.13
2022-09-10T12:14:07.599Z,100625.72
2022-09-10T12:16:39.497Z,100627.78
2022-09-10T12:19:17.610Z,100625.53
2022-09-10T12:21:50.935Z,100627.59
2022-09-10T12:24:28.191Z,100623.56
2022-09-10T12:26:56.853Z,100617.97
2022-09-10T12:29:31.606Z,100619.66
2022-09-10T12:32:28.974Z,100625.72
2022-09-10T12:35:47.673Z,100624.59
2022-09-10T12:38:51.234Z,100632.56
2022-09-10T12:42:10.987Z,100619.22
2022-09-10T12:44:47.044Z,100619.53
2022-09-10T12:47:44.938Z,100617.00
2022-09-10T12:50:35.907Z,100614.94
2022-09-10T12:53:44.556Z,100618.13
2022-09-10T12:56:38.117Z,100617.13
2022-09-10T12:59:35.658Z,100619.91
2022-09-10T13:02:04.151Z,100613.66
2022-09-10T13:04:36.151Z,100619.56
2022-09-10T13:07:07.073Z,100611.69
2022-09-10T13:09:38.827Z,100619.78
2022-09-10T13:12:21.961Z,100606.69
2022-09-10T13:14:53.787Z,100605.19
2022-09-10T13:17:39.742Z,100612.16
2022-09-10T13:20:29.049Z,100615.53
2022-09-10T13:23:01.421Z,100611.25
2022-09-10T13:25:42.957Z,100611.31
2022-09-10T13:28:48.433Z,100603.47
2022-09-10T13:31:26.008Z,100608.44
2022-09-10T13:34:33.281Z,100610.53
2022-09-10T13:37:28.766Z,100605.34
2022-09-10T13:40:36.918Z,100617.88
2022-09-10T13:43:19.726Z,100610.06
2022-09-10T13:45:50.912Z,100599.22
2022-09-10T13:48:23.031Z,100603.56
2022-09-10T13:51:00.569Z,100606.47
2022-09-10T13:53:30.364Z,100607.19
2022-09-10T13:56:00.860Z,100604.31
2022-09-10T13:58:33.860Z,100604.66
2022-09-10T14:01:03.489Z,100601.09
2022-09-10T14:03:34.705Z,100606.91
2022-09-10T14:06:05.083Z,100613.50
2022-09-10T14:08:35.848Z,100615.72
2022-09-10T14:11:09.010Z,100613.91
2022-09-10T14:13:40.355Z,100618.19
2022-09-10T14:16:12.251Z,100619.47
2022-09-10T14:18:44.915Z,100614.72
2022-09-10T14:21:14.808Z,100617.97
2022-09-10T14:23:47.390Z,100620.13
2022-09-10T14:26:23.194Z,100615.69
2022-09-10T14:28:53.795Z,100624.44
2022-09-10T14:31:35.148Z,100626.59
2022-09-10T14:34:32.017Z,100620.16
2022-09-10T14:37:00.996Z,100621.22
2022-09-10T14:39:29.073Z,100616.59
2022-09-10T14:42:11.779Z,100611.38
2022-09-10T14:44:43.641Z,100617.84
2022-09-10T14:47:16.216Z,100611.38
2022-09-10T14:49:47.160Z,100615.03
2022-09-10T14:52:15.600Z,100613.22
2022-09-10T14:54:43.612Z,100613.63
2022-09-10T14:57:14.757Z,100618.63
2022-09-10T14:59:44.593Z,100615.38
2022-09-10T15:02:16.934Z,100616.66
2022-09-10T15:04:46.448Z,100620.94
2022-09-10T15:07:14.581Z,100613.19
2022-09-10T15:09:42.286Z,100611.28
2022-09-10T15:12:14.932Z,100608.47
2022-09-10T15:14:42.841Z,100610.16
2022-09-10T15:17:14.750Z,100612.53
2022-09-10T15:19:42.555Z,100611.44
2022-09-10T15:22:20.901Z,100606.06
2022-09-10T15:25:08.614Z,100613.81
2022-09-10T15:27:37.291Z,100609.81
2022-09-10T15:30:06.295Z,100613.28
2022-09-10T15:32:34.213Z,100607.69
2022-09-10T15:35:03.244Z,100613.06
2022-09-10T15:37:32.337Z,100614.81
2022-09-10T15:40:00.177Z,100619.53
2022-09-10T15:42:28.028Z,100626.56
2022-09-10T15:44:55.705Z,100619.03
2022-09-10T15:47:24.137Z,100622.69
2022-09-10T15:49:53.424Z,100612.84
2022-09-10T15:52:21.442Z,100615.03
2022-09-10T15:54:50.551Z,100617.72
2022-09-10T15:57:18.368Z,100614.69
2022-09-10T15:59:46.972Z,100623.75
2022-09-10T16:02:14.909Z,100619.25
2022-09-10T16:04:43.240Z,100629.38
2022-09-10T16:07:11.647Z,100626.66
2022-09-10T16:09:40.015Z,100626.56
2022-09-10T16:12:09.965Z,100626.78
2022-09-10T16:14:37.913Z,100624.28
2022-09-10T16:17:10.400Z,100622.66
2022-09-10T16:19:38.331Z,100631.72
2022-09-10T16:22:06.580Z,100629.34
2022-09-10T16:24:34.580Z,100633.09
2022-09-10T16:27:02.456Z,100625.66
2022-09-10T16:29:32.828Z,100627.81
2022-09-10T16:32:00.715Z,100636.66
2022-09-10T16:34:28.700Z,100635.81
2022-09-10T16:36:56.680Z,100648.94
2022-09-10T16:39:24.645Z,100640.13
2022-09-10T16:41:52.553Z,100642.88
2022-09-10T16:44:20.487Z,100645.41
2022-09-10T16:46:50.028Z,100656.41
2022-09-10T16:49:19.696Z,100655.69
2022-09-10T16:51:49.029Z,100655.22
2022-09-10T16:54:19.477Z,100660.38
2022-09-10T16:56:48.679Z,100661.63
2022-09-10T16:59:18.650Z,100655.28
2022-09-10T17:01:49.495Z,100659.91
2022-09-10T17:04:24.677Z,100662.91
2022-09-10T17:06:55.881Z,100661.56
2022-09-10T17:09:24.728Z,100663.69
2022-09-10T17:11:52.608Z,100663.22
2022-09-10T17:14:20.405Z,100672.66
2022-09-10T17:16:48.690Z,100665.84
2022-09-10T17:19:20.132Z,100674.75
2022-09-10T17:21:51.278Z,100670.53
2022-09-10T17:24:21.224Z,100661.88
2022-09-10T17:26:49.161Z,100670.34
2022-09-10T17:29:18.832Z,100675.25
2022-09-10T17:31:48.029Z,100671.28
2022-09-10T17:34:16.750Z,100675.28
2022-09-10T17:36:47.679Z,100683.44
2022-09-10T17:39:16.345Z,100681.91
2022-09-10T17:41:44.243Z,100682.84
2022-09-10T17:44:13.328Z,100687.69
2022-09-10T17:46:42.700Z,100689.47
2022-09-10T17:49:13.789Z,100693.22
2022-09-10T17:51:42.168Z,100689.88
2022-09-10T17:54:13.096Z,100691.66
2022-09-10T17:56:41.813Z,100690.91
2022-09-10T17:59:14.255Z,100692.75
2022-09-10T18:01:42.988Z,100700.03
2022-09-10T18:04:14.187Z,100708.19
2022-09-10T18:06:41.953Z,100711.16
2022-09-10T18:09:12.379Z,100710.38
2022-09-10T18:11:41.298Z,100709.63
2022-09-10T18:14:14.571Z,100714.00
2022-09-10T18:16:42.329Z,100718.63
2022-09-10T18:19:14.729Z,100721.31
2022-09-10T18:21:44.105Z,100728.59
2022-09-10T18:24:16.837Z,100732.25
2022-09-10T18:26:49.222Z,100724.25
2022-09-10T18:29:18.979Z,100731.66
2022-09-10T18:31:49.931Z,100732.59
2022-09-10T18:34:23.011Z,100741.78
2022-09-10T18:36:54.171Z,100741.03
2022-09-10T18:39:24.281Z,100750.03
2022-09-10T18:41:52.548Z,100749.25
2022-09-10T18:44:23.086Z,100751.19
2022-09-10T18:46:52.634Z,100758.63
2022-09-10T18:49:22.390Z,100755.94
2022-09-10T18:51:50.309Z,100758.91
2022-09-10T18:54:18.736Z,100761.69
2022-09-10T18:56:49.093Z,100762.81
2022-09-10T18:59:21.170Z,100772.78
2022-09-10T19:01:50.371Z,100765.84
2022-09-10T19:04:21.627Z,100780.38
2022-09-10T19:06:50.742Z,100780.53
2022-09-10T19:09:20.503Z,100784.16
2022-09-10T19:11:51.549Z,100786.09
2022-09-10T19:14:21.895Z,100789.72
2022-09-10T19:16:51.074Z,100782.63
2022-09-10T19:19:20.958Z,100786.25
2022-09-10T19:21:50.205Z,100803.34
2022-09-10T19:24:25.326Z,100798.91
2022-09-10T19:27:02.748Z,100800.66
2022-09-10T19:29:30.654Z,100805.84
2022-09-10T19:31:58.357Z,100806.69
2022-09-10T19:34:27.230Z,100809.28
2022-09-10T19:36:55.104Z,100807.72
2022-09-10T19:39:22.875Z,100816.59
2022-09-10T19:41:51.104Z,100821.25
2022-09-10T19:44:20.763Z,100822.28
2022-09-10T19:46:48.525Z,100825.13
2022-09-10T19:49:16.791Z,100826.16
2022-09-10T19:51:44.472Z,100826.25
2022-09-10T19:54:12.562Z,100821.91
2022-09-10T19:56:42.329Z,100826.63
2022-09-10T19:59:10.805Z,100825.91
2022-09-10T20:01:42.453Z,100824.16
2022-09-10T20:04:12.017Z,100830.72
2022-09-10T20:06:42.424Z,100834.69
2022-09-10T20:09:10.841Z,100829.50
2022-09-10T20:11:39.404Z,100827.22
2022-09-10T20:14:09.874Z,100824.78
2022-09-10T20:16:39.646Z,100823.41
2022-09-10T20:19:10.823Z,100827.31
2022-09-10T20:21:39.001Z,100825.63
2022-09-10T20:24:08.110Z,100824.03
2022-09-10T20:26:38.009Z,100824.16
2022-09-10T20:29:08.297Z,100823.56
2022-09-10T20:31:41.041Z,100823.78
2022-09-10T20:34:13.355Z,100815.97
2022-09-10T20:36:42.073Z,100820.69
2022-09-10T20:39:11.220Z,100812.97
2022-09-10T20:41:39.948Z,100816.75
2022-09-10T20:44:07.813Z,100817.84
2022-09-10T20:46:35.738Z,100818.06
2022-09-10T20:49:03.700Z,100821.00
2022-09-10T20:51:34.719Z,100818.56
2022-09-10T20:54:02.842Z,100816.09
2022-09-10T20:56:30.619Z,100820.81
2022-09-10T20:58:59.385Z,100821.78
2022-09-10T21:01:30.994Z,100832.78
2022-09-10T21:04:01.292Z,100827.75
2022-09-10T21:06:31.152Z,100827.81
2022-09-10T21:09:00.960Z,100834.97
2022-09-10T21:11:30.713Z,100834.28
2022-09-10T21:14:00.560Z,100833.53
2022-09-10T21:16:29.902Z,100836.31
2022-09-10T21:18:59.514Z,100848.03
2022-09-10T21:21:29.532Z,100836.47
2022-09-10T21:23:58.949Z,100839.19
2022-09-10T21:26:30.397Z,100840.22
2022-09-10T21:29:00.390Z,100842.16
2022-09-10T21:31:29.225Z,100844.94
2022-09-10T21:34:02.425Z,100842.47
2022-09-10T21:36:31.754Z,100845.28
2022-09-10T21:39:01.006Z,100850.78
2022-09-10T21:41:32.267Z,100853.69
2022-09-10T21:44:00.848Z,100864.53
2022-09-10T21:46:29.419Z,100870.06
2022-09-10T21:48:57.261Z,100864.88
2022-09-10T21:51:25.347Z,100866.75
2022-09-10T21:53:54.837Z,100864.22
2022-09-10T21:56:23.359Z,100867.09
2022-09-10T21:58:53.618Z,100868.13
2022-09-10T22:01:23.457Z,100873.63
2022-09-10T22:03:52.592Z,100869.34
2022-09-10T22:06:23.004Z,100866.78
2022-09-10T22:08:52.542Z,100875.78
2022-09-10T22:11:23.306Z,100874.88
2022-09-10T22:13:57.229Z,100872.28
2022-09-10T22:16:24.960Z,100879.53
2022-09-10T22:18:53.779Z,100887.66
2022-09-10T22:21:21.536Z,100891.34
2022-09-10T22:23:51.357Z,100886.06
2022-09-10T22:26:21.199Z,100896.00
2022-09-10T22:28:52.771Z,100897.84
2022-09-10T22:31:23.993Z,100901.59
2022-09-10T22:33:54.806Z,100899.00
2022-09-10T22:36:24.516Z,100908.84
2022-09-10T22:38:53.822Z,100908.03
2022-09-10T22:41:23.091Z,100900.13
2022-09-10T22:43:51.316Z,100903.88
2022-09-10T22:46:21.378Z,100902.09
2022-09-10T22:48:49.325Z,100902.28
2022-09-10T22:51:19.232Z,100908.63
2022-09-10T22:53:48.143Z,100910.59
2022-09-10T22:56:18.062Z,100918.72
2022-09-10T22:58:46.642Z,100918.84
2022-09-10T23:01:16.195Z,100924.34
2022-09-10T23:03:45.892Z,100926.19
2022-09-10T23:06:15.018Z,100925.53
2022-09-10T23:08:44.056Z,100933.56
2022-09-10T23:11:15.221Z,100927.47
2022-09-10T23:13:43.902Z,100931.06
2022-09-10T23:16:14.379Z,100936.47
2022-09-10T23:18:43.390Z,100932.94
2022-09-10T23:21:13.827Z,100944.56
2022-09-10T23:23:45.771Z,100940.16
2022-09-10T23:26:13.721Z,100942.81
2022-09-10T23:28:42.761Z,100942.94
2022-09-10T23:31:14.085Z,100946.63
2022-09-10T23:33:43.386Z,100949.34
2022-09-10T23:36:13.372Z,100946.75
2022-09-10T23:38:41.966Z,100958.44
2022-09-10T23:41:10.293Z,100950.47
2022-09-10T23:43:39.084Z,100944.31
2022-09-10T23:46:07.182Z,100955.03
2022-09-10T23:48:34.875Z,100954.19
2022-09-10T23:51:03.252Z,100958.75
2022-09-10T23:53:32.761Z,100964.13
2022-09-10T23:56:02.668Z,100962.47
2022-09-10T23:58:30.789Z,100966.84
